sensor_id;sensor_type;location;lat;lon;timestamp;pressure;altitude;pressure_sealevel;temperature;humidity
35419;BME280;21525;41.240;16.500;2023-03-22T00:02:11;101312.84;;;18.98;80.21
35419;BME280;21525;41.240;16.500;2023-03-22T00:04:37;101318.00;;;19.01;81.08
35419;BME280;21525;41.240;16.500;2023-03-22T00:07:02;101306.03;;;18.93;82.20
35419;BME280;21525;41.240;16.500;2023-03-22T00:09:28;101307.63;;;18.97;82.08
35419;BME280;21525;41.240;16.500;2023-03-22T00:11:55;101308.16;;;19.06;81.05
35419;BME280;21525;41.240;16.500;2023-03-22T00:14:20;101296.91;;;19.01;81.95
35419;BME280;21525;41.240;16.500;2023-03-22T00:16:46;101303.13;;;19.22;80.01
35419;BME280;21525;41.240;16.500;2023-03-22T00:19:13;101305.56;;;19.05;80.81
35419;BME280;21525;41.240;16.500;2023-03-22T00:21:40;101307.13;;;19.32;78.99
35419;BME280;21525;41.240;16.500;2023-03-22T00:24:06;101300.53;;;18.99;81.18
35419;BME280;21525;41.240;16.500;2023-03-22T00:26:32;101300.25;;;19.06;81.33
35419;BME280;21525;41.240;16.500;2023-03-22T00:28:58;101304.69;;;18.83;81.99
35419;BME280;21525;41.240;16.500;2023-03-22T00:31:23;101296.25;;;18.73;81.88
35419;BME280;21525;41.240;16.500;2023-03-22T00:33:49;101293.66;;;18.95;80.71
35419;BME280;21525;41.240;16.500;2023-03-22T00:36:15;101292.31;;;19.28;79.08
35419;BME280;21525;41.240;16.500;2023-03-22T00:38:41;101290.25;;;19.36;77.39
35419;BME280;21525;41.240;16.500;2023-03-22T00:41:17;101297.25;;;19.16;77.38
35419;BME280;21525;41.240;16.500;2023-03-22T00:43:44;101284.00;;;19.39;76.95
35419;BME280;21525;41.240;16.500;2023-03-22T00:46:11;101283.63;;;19.04;78.97
35419;BME280;21525;41.240;16.500;2023-03-22T00:48:37;101278.03;;;19.34;78.32
35419;BME280;21525;41.240;16.500;2023-03-22T00:51:04;101287.84;;;19.08;78.20
35419;BME280;21525;41.240;16.500;2023-03-22T00:53:31;101278.25;;;19.50;75.58
35419;BME280;21525;41.240;16.500;2023-03-22T00:55:58;101282.41;;;19.35;76.65
35419;BME280;21525;41.240;16.500;2023-03-22T00:58:25;101289.19;;;19.19;78.27
35419;BME280;21525;41.240;16.500;2023-03-22T01:00:51;101272.59;;;19.38;76.71
35419;BME280;21525;41.240;16.500;2023-03-22T01:03:17;101278.78;;;19.37;75.91
35419;BME280;21525;41.240;16.500;2023-03-22T01:05:44;101278.94;;;18.66;80.20
35419;BME280;21525;41.240;16.500;2023-03-22T01:08:11;101278.59;;;19.20;78.75
35419;BME280;21525;41.240;16.500;2023-03-22T01:10:40;101272.72;;;18.68;81.49
35419;BME280;21525;41.240;16.500;2023-03-22T01:13:06;101268.28;;;19.36;77.48
35419;BME280;21525;41.240;16.500;2023-03-22T01:15:33;101268.47;;;19.53;77.10
35419;BME280;21525;41.240;16.500;2023-03-22T01:17:59;101267.75;;;19.06;79.29
35419;BME280;21525;41.240;16.500;2023-03-22T01:20:25;101267.13;;;18.99;80.25
35419;BME280;21525;41.240;16.500;2023-03-22T01:22:51;101259.59;;;19.12;78.91
35419;BME280;21525;41.240;16.500;2023-03-22T01:25:17;101262.75;;;19.64;75.78
35419;BME280;21525;41.240;16.500;2023-03-22T01:27:43;101272.53;;;19.40;76.16
35419;BME280;21525;41.240;16.500;2023-03-22T01:30:09;101263.25;;;19.30;78.44
35419;BME280;21525;41.240;16.500;2023-03-22T01:32:36;101262.22;;;19.56;76.29
35419;BME280;21525;41.240;16.500;2023-03-22T01:35:04;101260.50;;;19.55;76.46
35419;BME280;21525;41.240;16.500;2023-03-22T01:37:32;101261.41;;;19.32;76.59
35419;BME280;21525;41.240;16.500;2023-03-22T01:39:58;101250.19;;;19.49;76.64
35419;BME280;21525;41.240;16.500;2023-03-22T01:42:25;101251.56;;;19.15;79.17
35419;BME280;21525;41.240;16.500;2023-03-22T01:47:47;101241.13;;;19.76;74.23
35419;BME280;21525;41.240;16.500;2023-03-22T01:50:15;101245.41;;;18.93;77.69
35419;BME280;21525;41.240;16.500;2023-03-22T01:52:44;101241.06;;;19.13;75.53
35419;BME280;21525;41.240;16.500;2023-03-22T01:55:18;101240.88;;;19.18;75.04
35419;BME280;21525;41.240;16.500;2023-03-22T01:57:53;101246.56;;;18.86;75.86
35419;BME280;21525;41.240;16.500;2023-03-22T02:00:29;101241.72;;;19.40;74.09
35419;BME280;21525;41.240;16.500;2023-03-22T02:06:24;101232.94;;;19.18;74.72
35419;BME280;21525;41.240;16.500;2023-03-22T02:09:01;101231.16;;;19.40;72.79
35419;BME280;21525;41.240;16.500;2023-03-22T02:11:33;101221.31;;;19.66;71.37
35419;BME280;21525;41.240;16.500;2023-03-22T02:35:56;101236.75;;;19.33;70.54
35419;BME280;21525;41.240;16.500;2023-03-22T02:39:00;101234.72;;;19.61;69.38
35419;BME280;21525;41.240;16.500;2023-03-22T02:44:25;101231.09;;;19.42;69.54
35419;BME280;21525;41.240;16.500;2023-03-22T02:47:12;101238.47;;;19.34;68.41
35419;BME280;21525;41.240;16.500;2023-03-22T02:50:06;101231.28;;;19.59;68.46
35419;BME280;21525;41.240;16.500;2023-03-22T02:52:52;101243.03;;;19.08;71.04
35419;BME280;21525;41.240;16.500;2023-03-22T02:57:49;101242.03;;;19.33;69.81
35419;BME280;21525;41.240;16.500;2023-03-22T03:00:18;101238.28;;;19.38;69.34
35419;BME280;21525;41.240;16.500;2023-03-22T03:02:56;101248.72;;;19.20;69.05
35419;BME280;21525;41.240;16.500;2023-03-22T03:05:25;101234.41;;;19.47;68.88
35419;BME280;21525;41.240;16.500;2023-03-22T03:07:59;101243.00;;;18.87;70.72
35419;BME280;21525;41.240;16.500;2023-03-22T03:10:27;101231.13;;;19.20;69.23
35419;BME280;21525;41.240;16.500;2023-03-22T03:12:53;101225.66;;;19.46;68.10
35419;BME280;21525;41.240;16.500;2023-03-22T03:15:21;101229.66;;;19.13;69.61
35419;BME280;21525;41.240;16.500;2023-03-22T03:20:26;101227.44;;;19.24;66.94
35419;BME280;21525;41.240;16.500;2023-03-22T03:23:23;101230.16;;;19.65;66.35
35419;BME280;21525;41.240;16.500;2023-03-22T03:32:09;101236.97;;;20.11;64.11
35419;BME280;21525;41.240;16.500;2023-03-22T03:34:46;101247.69;;;19.24;65.67
35419;BME280;21525;41.240;16.500;2023-03-22T03:37:18;101244.66;;;19.55;64.84
35419;BME280;21525;41.240;16.500;2023-03-22T03:39:55;101260.06;;;19.00;66.84
35419;BME280;21525;41.240;16.500;2023-03-22T03:42:24;101260.59;;;19.94;63.92
35419;BME280;21525;41.240;16.500;2023-03-22T03:44:51;101260.56;;;19.31;65.12
35419;BME280;21525;41.240;16.500;2023-03-22T03:47:17;101265.75;;;19.97;62.70
35419;BME280;21525;41.240;16.500;2023-03-22T03:49:44;101267.06;;;19.66;63.93
35419;BME280;21525;41.240;16.500;2023-03-22T03:52:10;101271.78;;;19.36;64.56
35419;BME280;21525;41.240;16.500;2023-03-22T03:54:38;101267.47;;;19.98;62.80
35419;BME280;21525;41.240;16.500;2023-03-22T03:57:07;101262.88;;;19.39;63.64
35419;BME280;21525;41.240;16.500;2023-03-22T03:59:33;101268.75;;;19.67;62.42
35419;BME280;21525;41.240;16.500;2023-03-22T04:02:04;101270.91;;;18.92;64.30
35419;BME280;21525;41.240;16.500;2023-03-22T04:04:31;101271.09;;;19.31;63.70
35419;BME280;21525;41.240;16.500;2023-03-22T04:07:05;101276.63;;;19.47;62.78
35419;BME280;21525;41.240;16.500;2023-03-22T04:09:35;101278.53;;;19.22;63.59
35419;BME280;21525;41.240;16.500;2023-03-22T04:12:12;101282.81;;;19.46;62.31
35419;BME280;21525;41.240;16.500;2023-03-22T04:14:38;101275.81;;;19.67;60.96
35419;BME280;21525;41.240;16.500;2023-03-22T04:17:12;101273.38;;;19.83;61.07
35419;BME280;21525;41.240;16.500;2023-03-22T04:19:38;101282.75;;;19.69;60.66
35419;BME280;21525;41.240;16.500;2023-03-22T04:22:04;101276.09;;;19.39;61.64
35419;BME280;21525;41.240;16.500;2023-03-22T04:24:31;101274.41;;;19.36;61.55
35419;BME280;21525;41.240;16.500;2023-03-22T04:26:57;101285.34;;;19.05;62.35
35419;BME280;21525;41.240;16.500;2023-03-22T04:29:26;101275.28;;;19.37;61.76
35419;BME280;21525;41.240;16.500;2023-03-22T04:32:06;101287.66;;;19.35;61.66
35419;BME280;21525;41.240;16.500;2023-03-22T04:34:39;101284.72;;;19.64;60.41
35419;BME280;21525;41.240;16.500;2023-03-22T04:37:10;101285.94;;;19.34;61.33
35419;BME280;21525;41.240;16.500;2023-03-22T04:39:41;101281.16;;;19.86;59.45
35419;BME280;21525;41.240;16.500;2023-03-22T04:42:30;101289.03;;;19.67;60.80
35419;BME280;21525;41.240;16.500;2023-03-22T04:45:22;101299.50;;;19.25;61.23
35419;BME280;21525;41.240;16.500;2023-03-22T04:47:54;101293.69;;;19.60;60.86
35419;BME280;21525;41.240;16.500;2023-03-22T04:50:19;101293.94;;;19.32;61.52
35419;BME280;21525;41.240;16.500;2023-03-22T04:52:50;101306.56;;;19.68;60.13
35419;BME280;21525;41.240;16.500;2023-03-22T04:55:16;101300.00;;;19.78;60.19
35419;BME280;21525;41.240;16.500;2023-03-22T04:57:43;101303.31;;;19.61;59.65
35419;BME280;21525;41.240;16.500;2023-03-22T05:00:10;101314.91;;;19.79;59.27
35419;BME280;21525;41.240;16.500;2023-03-22T05:02:36;101309.66;;;19.57;59.31
35419;BME280;21525;41.240;16.500;2023-03-22T05:05:08;101311.06;;;19.86;58.89
35419;BME280;21525;41.240;16.500;2023-03-22T05:07:38;101308.78;;;19.57;59.30
35419;BME280;21525;41.240;16.500;2023-03-22T05:10:05;101314.28;;;18.60;63.16
35419;BME280;21525;41.240;16.500;2023-03-22T05:12:31;101321.28;;;19.08;62.11
35419;BME280;21525;41.240;16.500;2023-03-22T05:15:08;101310.19;;;20.07;59.28
35419;BME280;21525;41.240;16.500;2023-03-22T05:17:36;101317.16;;;19.88;58.80
35419;BME280;21525;41.240;16.500;2023-03-22T05:20:03;101316.09;;;19.72;59.45
35419;BME280;21525;41.240;16.500;2023-03-22T05:22:35;101319.75;;;20.10;58.30
35419;BME280;21525;41.240;16.500;2023-03-22T05:25:07;101324.16;;;19.89;58.73
35419;BME280;21525;41.240;16.500;2023-03-22T05:27:33;101326.09;;;20.06;58.17
35419;BME280;21525;41.240;16.500;2023-03-22T05:30:20;101328.38;;;20.54;57.91
35419;BME280;21525;41.240;16.500;2023-03-22T05:32:59;101326.63;;;20.73;56.34
35419;BME280;21525;41.240;16.500;2023-03-22T05:35:29;101333.41;;;20.20;57.63
35419;BME280;21525;41.240;16.500;2023-03-22T05:37:56;101336.03;;;19.99;58.19
35419;BME280;21525;41.240;16.500;2023-03-22T05:40:26;101339.97;;;20.11;58.00
35419;BME280;21525;41.240;16.500;2023-03-22T05:42:52;101347.44;;;21.00;55.44
35419;BME280;21525;41.240;16.500;2023-03-22T05:45:22;101350.06;;;21.19;54.64
35419;BME280;21525;41.240;16.500;2023-03-22T05:48:00;101348.31;;;22.93;50.97
35419;BME280;21525;41.240;16.500;2023-03-22T05:50:27;101351.31;;;23.66;49.24
35419;BME280;21525;41.240;16.500;2023-03-22T05:52:53;101350.88;;;25.45;45.76
35419;BME280;21525;41.240;16.500;2023-03-22T05:55:40;101353.56;;;26.12;43.33
35419;BME280;21525;41.240;16.500;2023-03-22T05:58:06;101342.81;;;26.26;42.12
35419;BME280;21525;41.240;16.500;2023-03-22T06:00:36;101337.84;;;28.39;39.04
35419;BME280;21525;41.240;16.500;2023-03-22T06:03:22;101338.66;;;28.29;38.15
35419;BME280;21525;41.240;16.500;2023-03-22T06:05:54;101343.94;;;28.64;37.18
35419;BME280;21525;41.240;16.500;2023-03-22T06:08:29;101347.78;;;27.43;38.36
35419;BME280;21525;41.240;16.500;2023-03-22T06:10:57;101350.69;;;27.04;39.25
35419;BME280;21525;41.240;16.500;2023-03-22T06:13:23;101346.38;;;28.09;38.88
35419;BME280;21525;41.240;16.500;2023-03-22T06:15:49;101344.06;;;29.07;37.17
35419;BME280;21525;41.240;16.500;2023-03-22T06:18:24;101352.00;;;28.18;37.28
35419;BME280;21525;41.240;16.500;2023-03-22T06:20:58;101349.66;;;28.70;37.07
35419;BME280;21525;41.240;16.500;2023-03-22T06:23:23;101347.44;;;30.06;35.66
35419;BME280;21525;41.240;16.500;2023-03-22T06:25:50;101342.63;;;30.52;34.05
35419;BME280;21525;41.240;16.500;2023-03-22T06:28:16;101342.69;;;31.90;32.30
35419;BME280;21525;41.240;16.500;2023-03-22T06:30:48;101336.69;;;32.44;30.90
35419;BME280;21525;41.240;16.500;2023-03-22T06:33:41;101338.94;;;32.49;30.69
35419;BME280;21525;41.240;16.500;2023-03-22T06:36:19;101345.78;;;31.66;31.87
35419;BME280;21525;41.240;16.500;2023-03-22T06:39:00;101346.69;;;31.76;31.89
35419;BME280;21525;41.240;16.500;2023-03-22T06:41:27;101343.38;;;32.30;31.29
35419;BME280;21525;41.240;16.500;2023-03-22T06:43:53;101350.47;;;32.02;31.06
35419;BME280;21525;41.240;16.500;2023-03-22T06:46:42;101344.78;;;33.71;29.51
35419;BME280;21525;41.240;16.500;2023-03-22T06:49:16;101339.22;;;32.83;30.15
35419;BME280;21525;41.240;16.500;2023-03-22T06:51:44;101341.41;;;33.24;30.59
35419;BME280;21525;41.240;16.500;2023-03-22T06:54:10;101330.53;;;33.16;29.68
35419;BME280;21525;41.240;16.500;2023-03-22T06:56:37;101333.84;;;33.10;29.99
35419;BME280;21525;41.240;16.500;2023-03-22T06:59:04;101339.63;;;32.88;30.13
35419;BME280;21525;41.240;16.500;2023-03-22T07:01:30;101341.69;;;33.21;30.37
35419;BME280;21525;41.240;16.500;2023-03-22T07:03:56;101341.84;;;33.20;29.77
35419;BME280;21525;41.240;16.500;2023-03-22T07:06:22;101346.84;;;33.60;29.63
35419;BME280;21525;41.240;16.500;2023-03-22T07:08:49;101342.78;;;34.17;29.53
35419;BME280;21525;41.240;16.500;2023-03-22T07:11:19;101341.75;;;33.57;29.34
35419;BME280;21525;41.240;16.500;2023-03-22T07:13:54;101334.75;;;34.51;28.10
35419;BME280;21525;41.240;16.500;2023-03-22T07:16:21;101335.16;;;34.64;27.91
35419;BME280;21525;41.240;16.500;2023-03-22T07:18:52;101333.84;;;34.17;28.49
35419;BME280;21525;41.240;16.500;2023-03-22T07:21:18;101345.28;;;34.11;28.65
35419;BME280;21525;41.240;16.500;2023-03-22T07:23:49;101339.16;;;34.52;28.20
35419;BME280;21525;41.240;16.500;2023-03-22T07:26:17;101346.41;;;34.26;28.21
35419;BME280;21525;41.240;16.500;2023-03-22T07:28:46;101354.72;;;34.07;28.20
35419;BME280;21525;41.240;16.500;2023-03-22T07:31:13;101353.88;;;33.25;29.46
35419;BME280;21525;41.240;16.500;2023-03-22T07:33:46;101356.03;;;32.57;29.53
35419;BME280;21525;41.240;16.500;2023-03-22T07:36:13;101363.34;;;31.51;31.29
35419;BME280;21525;41.240;16.500;2023-03-22T07:38:39;101362.38;;;31.90;31.46
35419;BME280;21525;41.240;16.500;2023-03-22T07:41:09;101363.19;;;31.62;31.89
35419;BME280;21525;41.240;16.500;2023-03-22T07:43:54;101369.25;;;31.54;31.41
35419;BME280;21525;41.240;16.500;2023-03-22T07:46:21;101368.84;;;30.99;31.77
35419;BME280;21525;41.240;16.500;2023-03-22T07:49:05;101369.13;;;31.36;32.37
35419;BME280;21525;41.240;16.500;2023-03-22T07:51:50;101369.72;;;31.88;31.85
35419;BME280;21525;41.240;16.500;2023-03-22T07:54:16;101373.16;;;31.81;31.75
35419;BME280;21525;41.240;16.500;2023-03-22T07:56:42;101371.97;;;31.04;31.06
35419;BME280;21525;41.240;16.500;2023-03-22T07:59:09;101367.91;;;30.49;32.02
35419;BME280;21525;41.240;16.500;2023-03-22T08:01:35;101378.19;;;31.05;32.15
35419;BME280;21525;41.240;16.500;2023-03-22T08:04:21;101374.38;;;31.48;31.83
35419;BME280;21525;41.240;16.500;2023-03-22T08:06:57;101374.28;;;31.78;31.44
35419;BME280;21525;41.240;16.500;2023-03-22T08:09:25;101376.56;;;31.23;31.22
35419;BME280;21525;41.240;16.500;2023-03-22T08:11:52;101376.97;;;31.78;31.04
35419;BME280;21525;41.240;16.500;2023-03-22T08:14:17;101370.97;;;31.65;31.15
35419;BME280;21525;41.240;16.500;2023-03-22T08:16:43;101376.25;;;31.95;31.16
35419;BME280;21525;41.240;16.500;2023-03-22T08:19:10;101385.03;;;31.97;30.68
35419;BME280;21525;41.240;16.500;2023-03-22T08:21:36;101377.97;;;31.67;31.02
35419;BME280;21525;41.240;16.500;2023-03-22T08:24:05;101372.97;;;31.63;30.67
35419;BME280;21525;41.240;16.500;2023-03-22T08:27:10;101375.13;;;31.69;31.17
35419;BME280;21525;41.240;16.500;2023-03-22T08:29:48;101367.06;;;31.69;30.99
35419;BME280;21525;41.240;16.500;2023-03-22T08:32:16;101367.03;;;31.88;31.23
35419;BME280;21525;41.240;16.500;2023-03-22T08:34:42;101362.81;;;31.76;31.50
35419;BME280;21525;41.240;16.500;2023-03-22T08:37:09;101367.75;;;32.00;30.95
35419;BME280;21525;41.240;16.500;2023-03-22T08:39:37;101358.56;;;31.83;31.04
35419;BME280;21525;41.240;16.500;2023-03-22T08:42:26;101358.56;;;32.02;30.90
35419;BME280;21525;41.240;16.500;2023-03-22T08:44:52;101359.44;;;31.84;31.14
35419;BME280;21525;41.240;16.500;2023-03-22T08:47:19;101362.19;;;31.44;31.72
35419;BME280;21525;41.240;16.500;2023-03-22T08:49:49;101360.91;;;30.98;31.75
35419;BME280;21525;41.240;16.500;2023-03-22T08:52:23;101355.84;;;31.45;31.26
35419;BME280;21525;41.240;16.500;2023-03-22T08:55:11;101357.38;;;31.37;31.57
35419;BME280;21525;41.240;16.500;2023-03-22T08:57:56;101361.06;;;31.36;31.72
35419;BME280;21525;41.240;16.500;2023-03-22T09:00:33;101360.97;;;31.07;32.55
35419;BME280;21525;41.240;16.500;2023-03-22T09:03:08;101359.75;;;30.91;32.83
35419;BME280;21525;41.240;16.500;2023-03-22T09:05:34;101365.13;;;30.81;33.80
35419;BME280;21525;41.240;16.500;2023-03-22T09:08:00;101349.94;;;31.11;33.41
35419;BME280;21525;41.240;16.500;2023-03-22T09:10:32;101360.88;;;30.58;34.43
35419;BME280;21525;41.240;16.500;2023-03-22T09:12:59;101359.78;;;30.60;34.50
35419;BME280;21525;41.240;16.500;2023-03-22T09:15:25;101357.06;;;30.91;34.40
35419;BME280;21525;41.240;16.500;2023-03-22T09:18:06;101359.25;;;30.66;35.19
35419;BME280;21525;41.240;16.500;2023-03-22T09:20:32;101363.44;;;30.90;34.67
35419;BME280;21525;41.240;16.500;2023-03-22T09:22:59;101364.41;;;30.79;35.10
35419;BME280;21525;41.240;16.500;2023-03-22T09:25:26;101373.06;;;30.92;34.73
35419;BME280;21525;41.240;16.500;2023-03-22T09:27:51;101373.81;;;31.04;34.76
35419;BME280;21525;41.240;16.500;2023-03-22T09:30:17;101375.84;;;30.81;34.83
35419;BME280;21525;41.240;16.500;2023-03-22T09:32:43;101380.47;;;31.10;35.09
35419;BME280;21525;41.240;16.500;2023-03-22T09:35:12;101372.22;;;31.32;34.80
35419;BME280;21525;41.240;16.500;2023-03-22T09:37:48;101384.38;;;30.96;35.24
35419;BME280;21525;41.240;16.500;2023-03-22T09:40:18;101387.94;;;30.45;35.35
35419;BME280;21525;41.240;16.500;2023-03-22T09:42:47;101387.47;;;30.91;34.86
35419;BME280;21525;41.240;16.500;2023-03-22T09:45:17;101384.50;;;30.22;35.80
35419;BME280;21525;41.240;16.500;2023-03-22T09:47:48;101394.03;;;30.47;35.83
35419;BME280;21525;41.240;16.500;2023-03-22T09:50:21;101383.59;;;30.74;36.20
35419;BME280;21525;41.240;16.500;2023-03-22T09:52:49;101389.03;;;30.63;36.69
35419;BME280;21525;41.240;16.500;2023-03-22T09:55:29;101379.41;;;30.91;35.97
35419;BME280;21525;41.240;16.500;2023-03-22T10:00:40;101381.19;;;30.71;35.61
35419;BME280;21525;41.240;16.500;2023-03-22T10:05:52;101368.16;;;30.46;35.08
35419;BME280;21525;41.240;16.500;2023-03-22T10:10:48;101375.69;;;30.31;34.58
35419;BME280;21525;41.240;16.500;2023-03-22T10:13:22;101378.13;;;30.14;34.47
35419;BME280;21525;41.240;16.500;2023-03-22T10:15:53;101367.56;;;30.42;33.67
35419;BME280;21525;41.240;16.500;2023-03-22T10:18:29;101365.44;;;29.84;33.30
35419;BME280;21525;41.240;16.500;2023-03-22T10:21:02;101368.28;;;29.71;34.24
35419;BME280;21525;41.240;16.500;2023-03-22T10:26:58;101360.63;;;30.61;32.84
35419;BME280;21525;41.240;16.500;2023-03-22T10:31:53;101371.56;;;30.06;32.72
35419;BME280;21525;41.240;16.500;2023-03-22T10:34:25;101363.00;;;30.85;31.65
35419;BME280;21525;41.240;16.500;2023-03-22T10:37:00;101358.63;;;30.12;31.66
35419;BME280;21525;41.240;16.500;2023-03-22T10:39:33;101361.44;;;29.78;32.04
35419;BME280;21525;41.240;16.500;2023-03-22T10:42:02;101353.06;;;29.71;32.86
35419;BME280;21525;41.240;16.500;2023-03-22T10:44:32;101362.22;;;29.58;33.97
35419;BME280;21525;41.240;16.500;2023-03-22T10:47:02;101360.28;;;29.60;34.41
35419;BME280;21525;41.240;16.500;2023-03-22T10:49:42;101348.28;;;29.75;33.31
35419;BME280;21525;41.240;16.500;2023-03-22T10:55:13;101361.47;;;28.10;36.37
35419;BME280;21525;41.240;16.500;2023-03-22T10:57:40;101350.84;;;28.33;37.92
35419;BME280;21525;41.240;16.500;2023-03-22T11:00:08;101358.28;;;28.05;38.44
35419;BME280;21525;41.240;16.500;2023-03-22T11:02:46;101352.31;;;28.37;37.70
35419;BME280;21525;41.240;16.500;2023-03-22T11:05:33;101354.75;;;28.40;37.00
35419;BME280;21525;41.240;16.500;2023-03-22T11:08:01;101352.50;;;28.91;37.30
35419;BME280;21525;41.240;16.500;2023-03-22T11:10:30;101348.44;;;28.74;37.56
35419;BME280;21525;41.240;16.500;2023-03-22T11:16:00;101346.16;;;27.54;35.84
35419;BME280;21525;41.240;16.500;2023-03-22T11:18:32;101343.53;;;27.65;36.81
35419;BME280;21525;41.240;16.500;2023-03-22T11:21:09;101340.06;;;27.28;36.34
35419;BME280;21525;41.240;16.500;2023-03-22T11:23:36;101340.59;;;27.81;35.94
35419;BME280;21525;41.240;16.500;2023-03-22T11:26:10;101343.75;;;27.01;37.65
35419;BME280;21525;41.240;16.500;2023-03-22T11:31:10;101331.91;;;27.66;37.82
35419;BME280;21525;41.240;16.500;2023-03-22T11:33:36;101327.19;;;28.16;37.63
35419;BME280;21525;41.240;16.500;2023-03-22T11:36:23;101336.91;;;28.05;37.51
35419;BME280;21525;41.240;16.500;2023-03-22T11:39:00;101334.28;;;28.28;36.78
35419;BME280;21525;41.240;16.500;2023-03-22T11:41:29;101340.81;;;28.13;36.46
35419;BME280;21525;41.240;16.500;2023-03-22T11:44:04;101343.44;;;27.06;36.78
35419;BME280;21525;41.240;16.500;2023-03-22T11:46:33;101343.81;;;26.63;36.96
35419;BME280;21525;41.240;16.500;2023-03-22T11:49:00;101339.44;;;26.62;36.68
35419;BME280;21525;41.240;16.500;2023-03-22T11:51:33;101344.41;;;26.80;37.00
35419;BME280;21525;41.240;16.500;2023-03-22T11:54:12;101334.84;;;26.39;37.00
35419;BME280;21525;41.240;16.500;2023-03-22T11:56:42;101321.19;;;27.66;36.64
35419;BME280;21525;41.240;16.500;2023-03-22T11:59:13;101325.69;;;27.41;36.90
35419;BME280;21525;41.240;16.500;2023-03-22T12:04:26;101326.78;;;25.61;40.04
35419;BME280;21525;41.240;16.500;2023-03-22T12:06:59;101327.44;;;26.81;37.94
35419;BME280;21525;41.240;16.500;2023-03-22T12:09:38;101322.56;;;26.62;38.00
35419;BME280;21525;41.240;16.500;2023-03-22T12:12:13;101321.91;;;26.20;38.01
35419;BME280;21525;41.240;16.500;2023-03-22T12:17:36;101316.88;;;26.66;37.42
35419;BME280;21525;41.240;16.500;2023-03-22T12:22:33;101312.00;;;25.70;38.03
35419;BME280;21525;41.240;16.500;2023-03-22T12:25:00;101308.75;;;26.04;37.91
35419;BME280;21525;41.240;16.500;2023-03-22T12:27:34;101306.66;;;25.97;37.94
35419;BME280;21525;41.240;16.500;2023-03-22T12:32:42;101306.72;;;25.56;38.29
35419;BME280;21525;41.240;16.500;2023-03-22T12:35:18;101296.56;;;25.48;38.32
35419;BME280;21525;41.240;16.500;2023-03-22T12:37:48;101292.88;;;25.90;38.09
35419;BME280;21525;41.240;16.500;2023-03-22T12:40:20;101290.34;;;26.39;37.21
35419;BME280;21525;41.240;16.500;2023-03-22T12:45:25;101296.75;;;25.32;38.73
35419;BME280;21525;41.240;16.500;2023-03-22T12:48:02;101288.94;;;26.08;37.13
35419;BME280;21525;41.240;16.500;2023-03-22T12:50:33;101290.56;;;26.24;36.90
35419;BME280;21525;41.240;16.500;2023-03-22T12:53:01;101295.41;;;25.79;37.76
35419;BME280;21525;41.240;16.500;2023-03-22T12:55:36;101282.88;;;26.32;36.92
35419;BME280;21525;41.240;16.500;2023-03-22T12:58:07;101288.84;;;26.35;37.26
35419;BME280;21525;41.240;16.500;2023-03-22T13:00:53;101288.00;;;26.22;37.37
35419;BME280;21525;41.240;16.500;2023-03-22T13:03:37;101289.72;;;26.98;36.34
35419;BME280;21525;41.240;16.500;2023-03-22T13:06:27;101293.72;;;25.24;39.18
35419;BME280;21525;41.240;16.500;2023-03-22T13:11:33;101286.97;;;24.63;41.82
35419;BME280;21525;41.240;16.500;2023-03-22T13:13:59;101290.19;;;25.51;40.45
35419;BME280;21525;41.240;16.500;2023-03-22T13:16:48;101285.97;;;26.13;40.40
35419;BME280;21525;41.240;16.500;2023-03-22T13:19:32;101290.94;;;25.53;42.88
35419;BME280;21525;41.240;16.500;2023-03-22T13:25:00;101290.22;;;25.36;42.13
35419;BME280;21525;41.240;16.500;2023-03-22T13:33:02;101286.22;;;23.89;45.75
35419;BME280;21525;41.240;16.500;2023-03-22T13:35:44;101289.94;;;25.14;43.72
35419;BME280;21525;41.240;16.500;2023-03-22T13:41:26;101284.03;;;24.68;46.84
35419;BME280;21525;41.240;16.500;2023-03-22T13:43:57;101289.00;;;25.15;46.30
35419;BME280;21525;41.240;16.500;2023-03-22T13:48:56;101292.84;;;24.83;47.84
35419;BME280;21525;41.240;16.500;2023-03-22T13:51:37;101283.16;;;23.81;48.97
35419;BME280;21525;41.240;16.500;2023-03-22T13:59:27;101275.34;;;24.93;46.69
35419;BME280;21525;41.240;16.500;2023-03-22T14:04:51;101273.44;;;24.95;47.12
35419;BME280;21525;41.240;16.500;2023-03-22T14:07:45;101286.34;;;23.26;51.56
35419;BME280;21525;41.240;16.500;2023-03-22T14:10:38;101277.78;;;23.36;50.57
35419;BME280;21525;41.240;16.500;2023-03-22T14:15:33;101279.38;;;24.29;48.35
35419;BME280;21525;41.240;16.500;2023-03-22T14:20:33;101276.94;;;23.96;48.49
35419;BME280;21525;41.240;16.500;2023-03-22T14:23:05;101281.94;;;23.56;49.46
35419;BME280;21525;41.240;16.500;2023-03-22T14:25:34;101276.47;;;22.65;53.24
35419;BME280;21525;41.240;16.500;2023-03-22T14:28:01;101264.81;;;23.76;49.82
35419;BME280;21525;41.240;16.500;2023-03-22T14:30:37;101268.84;;;23.83;49.73
35419;BME280;21525;41.240;16.500;2023-03-22T14:33:20;101266.66;;;24.34;49.71
35419;BME280;21525;41.240;16.500;2023-03-22T14:35:52;101264.38;;;24.56;48.43
35419;BME280;21525;41.240;16.500;2023-03-22T14:38:21;101264.56;;;24.39;49.00
35419;BME280;21525;41.240;16.500;2023-03-22T14:41:07;101264.22;;;24.72;48.15
35419;BME280;21525;41.240;16.500;2023-03-22T14:43:33;101261.13;;;24.65;48.83
35419;BME280;21525;41.240;16.500;2023-03-22T14:46:12;101248.84;;;24.77;47.82
35419;BME280;21525;41.240;16.500;2023-03-22T14:48:38;101254.22;;;24.63;48.31
35419;BME280;21525;41.240;16.500;2023-03-22T14:51:18;101256.19;;;24.59;49.64